サンパウロ/グアルーリョス の空港の天気 - METARとTAF

グアルーリョス国際空港 (サンパウロ) ( SBGR / GRU ) - ブラジル サンパウロ州サンパウロ市
飛行場実況気象(Metar)
観測時間07/18 22:00 BRT (07/19 01:00 UTC)
風向・風速東 1m/s
視程10km以上
天気現象
なし
気温17℃
湿度83%
気圧1022hPa
METARSBGR 190100Z 08002KT CAVOK 17/14 Q1022
過去の天気等 Google飛行場航空写真 Wunderground天気予報

過去48時間のMETAR

飛行場予報(TAF)
発表時間: 7/18 19:03 BRT (7/18 22:03 UTC)
予報対象時間: 18日21時 BRT ~ 20日3時 BRT
風向・風速東 1m/s
視程8000m
なし
19日2時 BRT ~ 19日4時 BRT に徐々に
風向・風速東北東 1m/s
19日6時 BRT から 確率 30% で
視程5000m
天気現象もや
19日8時 BRT ~ 19日10時 BRT に徐々に
風向・風速東北東 3m/s
19日11時 BRT ~ 19日13時 BRT に徐々に
風向・風速北北西 3m/s
視程10km以上
なし
19日15時 BRT ~ 19日17時 BRT に徐々に
風向・風速北 1m/s
19日17時 BRT ~ 19日19時 BRT に徐々に
風向・風速東 1m/s
TAF SBGR 182203Z 1900/2006 08002KT 8000 NSC TN11/1907Z TX27/1918Z
BECMG 1905/1907 07002KT
PROB30 1909/1911 5000 BR
BECMG 1911/1913 06005KT
BECMG 1914/1916 34005KT CAVOK
BECMG 1918/1920 35002KT
BECMG 1920/1922 08002KT RMK PGM